sensor_id;sensor_type;location;lat;lon;timestamp;pressure;altitude;pressure_sealevel;temperature;humidity
32733;BME280;11867;51.198;11.966;2023-02-18T00:00:52;100838.56;;;10.22;85.18
32733;BME280;11867;51.198;11.966;2023-02-18T00:01:58;100838.09;;;10.30;85.21
32733;BME280;11867;51.198;11.966;2023-02-18T00:03:02;100837.78;;;10.27;84.22
32733;BME280;11867;51.198;11.966;2023-02-18T00:04:09;100838.81;;;10.16;85.32
32733;BME280;11867;51.198;11.966;2023-02-18T00:05:14;100846.47;;;10.19;84.94
32733;BME280;11867;51.198;11.966;2023-02-18T00:06:18;100842.13;;;10.23;85.10
32733;BME280;11867;51.198;11.966;2023-02-18T00:07:23;100832.78;;;10.08;85.05
32733;BME280;11867;51.198;11.966;2023-02-18T00:08:32;100857.66;;;10.22;85.08
32733;BME280;11867;51.198;11.966;2023-02-18T00:09:42;100852.75;;;10.24;85.19
32733;BME280;11867;51.198;11.966;2023-02-18T00:10:47;100830.94;;;10.19;84.54
32733;BME280;11867;51.198;11.966;2023-02-18T00:11:53;100837.50;;;10.23;84.24
32733;BME280;11867;51.198;11.966;2023-02-18T00:12:58;100854.50;;;10.41;84.16
32733;BME280;11867;51.198;11.966;2023-02-18T00:14:04;100848.47;;;10.34;84.32
32733;BME280;11867;51.198;11.966;2023-02-18T00:15:09;100856.66;;;10.34;84.58
32733;BME280;11867;51.198;11.966;2023-02-18T00:16:12;100842.22;;;10.38;83.80
32733;BME280;11867;51.198;11.966;2023-02-18T00:17:17;100844.72;;;10.60;83.79
32733;BME280;11867;51.198;11.966;2023-02-18T00:18:23;100835.44;;;10.46;82.92
32733;BME280;11867;51.198;11.966;2023-02-18T00:19:26;100838.19;;;10.61;82.57
32733;BME280;11867;51.198;11.966;2023-02-18T00:20:31;100840.41;;;10.69;82.49
32733;BME280;11867;51.198;11.966;2023-02-18T00:21:34;100846.09;;;10.58;81.81
32733;BME280;11867;51.198;11.966;2023-02-18T00:22:44;100847.97;;;10.42;82.83
32733;BME280;11867;51.198;11.966;2023-02-18T00:23:49;100844.41;;;10.41;83.16
32733;BME280;11867;51.198;11.966;2023-02-18T00:24:58;100853.69;;;10.45;83.11
32733;BME280;11867;51.198;11.966;2023-02-18T00:26:02;100855.59;;;10.40;82.68
32733;BME280;11867;51.198;11.966;2023-02-18T00:27:11;100830.41;;;10.17;83.27
32733;BME280;11867;51.198;11.966;2023-02-18T00:28:18;100849.22;;;10.29;83.40
32733;BME280;11867;51.198;11.966;2023-02-18T00:29:21;100836.38;;;10.14;83.87
32733;BME280;11867;51.198;11.966;2023-02-18T00:30:26;100850.59;;;10.26;83.65
32733;BME280;11867;51.198;11.966;2023-02-18T00:31:33;100829.34;;;10.23;83.76
32733;BME280;11867;51.198;11.966;2023-02-18T00:32:46;100842.78;;;10.40;83.38
32733;BME280;11867;51.198;11.966;2023-02-18T00:33:49;100847.69;;;10.43;83.54
32733;BME280;11867;51.198;11.966;2023-02-18T00:35:00;100819.53;;;10.27;83.59
32733;BME280;11867;51.198;11.966;2023-02-18T00:36:06;100821.66;;;10.15;83.27
32733;BME280;11867;51.198;11.966;2023-02-18T00:37:11;100840.81;;;10.30;83.32
32733;BME280;11867;51.198;11.966;2023-02-18T00:38:17;100841.41;;;10.38;83.68
32733;BME280;11867;51.198;11.966;2023-02-18T00:39:20;100823.44;;;10.47;83.13
32733;BME280;11867;51.198;11.966;2023-02-18T00:40:25;100821.25;;;10.49;83.37
32733;BME280;11867;51.198;11.966;2023-02-18T00:41:28;100832.72;;;10.51;82.83
32733;BME280;11867;51.198;11.966;2023-02-18T00:42:39;100820.69;;;10.32;83.25
32733;BME280;11867;51.198;11.966;2023-02-18T00:43:48;100839.53;;;10.48;83.57
32733;BME280;11867;51.198;11.966;2023-02-18T00:44:53;100836.03;;;10.63;83.94
32733;BME280;11867;51.198;11.966;2023-02-18T00:45:57;100817.47;;;10.50;83.03
32733;BME280;11867;51.198;11.966;2023-02-18T00:46:59;100815.81;;;10.44;83.07
32733;BME280;11867;51.198;11.966;2023-02-18T00:48:07;100838.16;;;10.46;83.58
32733;BME280;11867;51.198;11.966;2023-02-18T00:49:10;100835.41;;;10.41;83.46
32733;BME280;11867;51.198;11.966;2023-02-18T00:50:25;100828.84;;;10.37;83.51
32733;BME280;11867;51.198;11.966;2023-02-18T00:51:28;100838.16;;;10.46;83.95
32733;BME280;11867;51.198;11.966;2023-02-18T00:52:32;100815.78;;;10.34;84.17
32733;BME280;11867;51.198;11.966;2023-02-18T00:53:37;100807.59;;;10.34;84.03
32733;BME280;11867;51.198;11.966;2023-02-18T00:54:42;100822.34;;;10.43;84.09
32733;BME280;11867;51.198;11.966;2023-02-18T00:55:45;100829.47;;;10.64;84.19
32733;BME280;11867;51.198;11.966;2023-02-18T00:56:50;100830.59;;;10.89;82.94
32733;BME280;11867;51.198;11.966;2023-02-18T00:57:54;100823.53;;;11.03;82.32
32733;BME280;11867;51.198;11.966;2023-02-18T00:58:58;100818.09;;;10.98;82.87
32733;BME280;11867;51.198;11.966;2023-02-18T01:00:07;100827.91;;;11.15;82.59
32733;BME280;11867;51.198;11.966;2023-02-18T01:01:10;100814.00;;;11.06;82.76
32733;BME280;11867;51.198;11.966;2023-02-18T01:02:15;100804.97;;;10.95;83.24
32733;BME280;11867;51.198;11.966;2023-02-18T01:03:20;100818.38;;;10.92;84.05
32733;BME280;11867;51.198;11.966;2023-02-18T01:04:25;100807.97;;;10.88;84.24
32733;BME280;11867;51.198;11.966;2023-02-18T01:05:30;100819.97;;;10.82;84.86
32733;BME280;11867;51.198;11.966;2023-02-18T01:06:37;100816.41;;;10.77;85.46
32733;BME280;11867;51.198;11.966;2023-02-18T01:07:40;100823.22;;;10.59;86.40
32733;BME280;11867;51.198;11.966;2023-02-18T01:08:42;100831.38;;;10.59;87.04
32733;BME280;11867;51.198;11.966;2023-02-18T01:09:46;100830.22;;;10.39;87.97
32733;BME280;11867;51.198;11.966;2023-02-18T01:10:54;100835.84;;;10.22;88.97
32733;BME280;11867;51.198;11.966;2023-02-18T01:11:58;100834.22;;;10.21;89.49
32733;BME280;11867;51.198;11.966;2023-02-18T01:13:05;100838.63;;;10.27;90.06
32733;BME280;11867;51.198;11.966;2023-02-18T01:14:07;100832.06;;;10.28;89.66
32733;BME280;11867;51.198;11.966;2023-02-18T01:15:15;100826.81;;;10.17;90.33
32733;BME280;11867;51.198;11.966;2023-02-18T01:16:22;100816.44;;;10.03;90.05
32733;BME280;11867;51.198;11.966;2023-02-18T01:17:29;100829.28;;;10.18;89.91
32733;BME280;11867;51.198;11.966;2023-02-18T01:18:32;100830.97;;;10.24;90.00
32733;BME280;11867;51.198;11.966;2023-02-18T01:19:39;100822.78;;;10.24;89.83
32733;BME280;11867;51.198;11.966;2023-02-18T01:20:45;100827.63;;;10.12;89.82
32733;BME280;11867;51.198;11.966;2023-02-18T01:21:50;100799.22;;;9.93;90.27
32733;BME280;11867;51.198;11.966;2023-02-18T01:22:55;100806.84;;;9.90;90.33
32733;BME280;11867;51.198;11.966;2023-02-18T01:24:00;100818.03;;;9.99;90.40
32733;BME280;11867;51.198;11.966;2023-02-18T01:25:04;100818.31;;;9.98;90.26
32733;BME280;11867;51.198;11.966;2023-02-18T01:26:10;100809.28;;;9.92;90.25
32733;BME280;11867;51.198;11.966;2023-02-18T01:27:14;100795.88;;;9.80;90.10
32733;BME280;11867;51.198;11.966;2023-02-18T01:28:18;100802.41;;;9.74;90.81
32733;BME280;11867;51.198;11.966;2023-02-18T01:29:28;100801.56;;;9.74;90.95
32733;BME280;11867;51.198;11.966;2023-02-18T01:30:31;100799.13;;;9.77;90.70
32733;BME280;11867;51.198;11.966;2023-02-18T01:31:33;100790.19;;;9.82;90.84
32733;BME280;11867;51.198;11.966;2023-02-18T01:32:37;100793.69;;;9.77;90.77
32733;BME280;11867;51.198;11.966;2023-02-18T01:33:47;100802.66;;;9.73;90.79
32733;BME280;11867;51.198;11.966;2023-02-18T01:34:50;100807.59;;;9.86;90.69
32733;BME280;11867;51.198;11.966;2023-02-18T01:35:55;100805.47;;;9.93;90.04
32733;BME280;11867;51.198;11.966;2023-02-18T01:37:09;100798.94;;;9.89;89.78
32733;BME280;11867;51.198;11.966;2023-02-18T01:38:11;100788.47;;;9.70;89.96
32733;BME280;11867;51.198;11.966;2023-02-18T01:39:19;100784.09;;;9.64;90.33
32733;BME280;11867;51.198;11.966;2023-02-18T01:40:24;100796.69;;;9.76;90.31
32733;BME280;11867;51.198;11.966;2023-02-18T01:41:29;100776.47;;;9.66;90.43
32733;BME280;11867;51.198;11.966;2023-02-18T01:42:31;100789.56;;;9.69;90.13
32733;BME280;11867;51.198;11.966;2023-02-18T01:43:37;100808.91;;;9.73;90.12
32733;BME280;11867;51.198;11.966;2023-02-18T01:44:40;100811.91;;;9.72;89.74
32733;BME280;11867;51.198;11.966;2023-02-18T01:45:58;100807.03;;;9.74;89.74
32733;BME280;11867;51.198;11.966;2023-02-18T01:47:01;100793.88;;;9.60;89.79
32733;BME280;11867;51.198;11.966;2023-02-18T01:48:10;100818.16;;;9.72;89.71
32733;BME280;11867;51.198;11.966;2023-02-18T01:49:17;100809.94;;;9.62;90.18
32733;BME280;11867;51.198;11.966;2023-02-18T01:50:21;100806.34;;;9.56;89.63
32733;BME280;11867;51.198;11.966;2023-02-18T01:51:27;100812.91;;;9.60;89.42
32733;BME280;11867;51.198;11.966;2023-02-18T01:52:32;100816.53;;;9.71;89.26
32733;BME280;11867;51.198;11.966;2023-02-18T01:53:37;100817.91;;;9.74;89.27
32733;BME280;11867;51.198;11.966;2023-02-18T01:54:44;100817.19;;;9.88;88.51
32733;BME280;11867;51.198;11.966;2023-02-18T01:55:48;100824.72;;;9.76;87.94
32733;BME280;11867;51.198;11.966;2023-02-18T01:56:55;100836.75;;;9.80;87.78
32733;BME280;11867;51.198;11.966;2023-02-18T01:57:58;100822.88;;;9.82;87.59
32733;BME280;11867;51.198;11.966;2023-02-18T01:59:03;100836.50;;;9.92;87.47
32733;BME280;11867;51.198;11.966;2023-02-18T02:00:09;100812.72;;;9.72;86.39
32733;BME280;11867;51.198;11.966;2023-02-18T02:01:13;100819.28;;;9.76;86.61
32733;BME280;11867;51.198;11.966;2023-02-18T02:02:18;100811.00;;;9.61;85.75
32733;BME280;11867;51.198;11.966;2023-02-18T02:03:21;100814.28;;;9.63;86.14
32733;BME280;11867;51.198;11.966;2023-02-18T02:04:24;100821.94;;;9.66;86.02
32733;BME280;11867;51.198;11.966;2023-02-18T02:05:30;100833.41;;;9.73;86.33
32733;BME280;11867;51.198;11.966;2023-02-18T02:06:35;100827.41;;;9.71;86.33
32733;BME280;11867;51.198;11.966;2023-02-18T02:07:38;100820.53;;;9.58;86.19
32733;BME280;11867;51.198;11.966;2023-02-18T02:08:44;100838.84;;;9.68;86.30
32733;BME280;11867;51.198;11.966;2023-02-18T02:09:51;100821.81;;;9.45;86.16
32733;BME280;11867;51.198;11.966;2023-02-18T02:11:13;100826.16;;;9.46;86.17
32733;BME280;11867;51.198;11.966;2023-02-18T02:12:26;100828.19;;;9.61;86.82
32733;BME280;11867;51.198;11.966;2023-02-18T02:13:43;100833.84;;;9.55;86.29
32733;BME280;11867;51.198;11.966;2023-02-18T02:15:00;100824.00;;;9.48;86.03
32733;BME280;11867;51.198;11.966;2023-02-18T02:16:11;100834.84;;;9.43;86.65
32733;BME280;11867;51.198;11.966;2023-02-18T02:17:29;100833.28;;;9.53;86.44
32733;BME280;11867;51.198;11.966;2023-02-18T02:18:46;100838.16;;;9.50;86.47
32733;BME280;11867;51.198;11.966;2023-02-18T02:20:36;100820.88;;;9.29;86.90
32733;BME280;11867;51.198;11.966;2023-02-18T02:22:21;100834.94;;;9.54;86.73
32733;BME280;11867;51.198;11.966;2023-02-18T02:24:15;100844.66;;;9.44;86.38
32733;BME280;11867;51.198;11.966;2023-02-18T02:25:36;100826.72;;;9.48;86.74
32733;BME280;11867;51.198;11.966;2023-02-18T02:27:00;100825.03;;;9.42;85.90
32733;BME280;11867;51.198;11.966;2023-02-18T02:29:47;100820.63;;;9.36;86.43
32733;BME280;11867;51.198;11.966;2023-02-18T02:31:20;100822.78;;;9.29;85.84
32733;BME280;11867;51.198;11.966;2023-02-18T02:32:43;100804.78;;;9.28;85.67
32733;BME280;11867;51.198;11.966;2023-02-18T02:34:19;100828.38;;;9.49;85.54
32733;BME280;11867;51.198;11.966;2023-02-18T02:35:24;100806.28;;;9.46;85.14
32733;BME280;11867;51.198;11.966;2023-02-18T02:36:30;100819.59;;;9.42;84.84
32733;BME280;11867;51.198;11.966;2023-02-18T02:37:41;100825.94;;;9.53;85.53
32733;BME280;11867;51.198;11.966;2023-02-18T02:38:53;100811.31;;;9.64;84.60
32733;BME280;11867;51.198;11.966;2023-02-18T02:40:04;100810.72;;;9.57;84.67
32733;BME280;11867;51.198;11.966;2023-02-18T02:41:15;100805.56;;;9.61;84.35
32733;BME280;11867;51.198;11.966;2023-02-18T02:42:27;100819.28;;;9.76;83.84
32733;BME280;11867;51.198;11.966;2023-02-18T02:43:39;100823.69;;;9.82;83.89
32733;BME280;11867;51.198;11.966;2023-02-18T02:44:50;100813.53;;;9.67;83.83
32733;BME280;11867;51.198;11.966;2023-02-18T02:45:58;100814.34;;;9.68;83.89
32733;BME280;11867;51.198;11.966;2023-02-18T02:47:08;100804.50;;;9.67;84.10
32733;BME280;11867;51.198;11.966;2023-02-18T02:48:16;100810.56;;;9.74;83.77
32733;BME280;11867;51.198;11.966;2023-02-18T02:49:32;100808.66;;;9.75;83.49
32733;BME280;11867;51.198;11.966;2023-02-18T02:50:43;100821.50;;;9.84;83.95
32733;BME280;11867;51.198;11.966;2023-02-18T02:51:53;100818.16;;;9.72;84.26
32733;BME280;11867;51.198;11.966;2023-02-18T02:53:05;100807.78;;;9.64;84.78
32733;BME280;11867;51.198;11.966;2023-02-18T02:54:16;100796.88;;;9.64;84.58
32733;BME280;11867;51.198;11.966;2023-02-18T02:55:18;100821.94;;;9.66;85.24
32733;BME280;11867;51.198;11.966;2023-02-18T02:56:23;100806.41;;;9.61;85.48
32733;BME280;11867;51.198;11.966;2023-02-18T02:57:45;100810.50;;;9.64;85.68
32733;BME280;11867;51.198;11.966;2023-02-18T02:58:56;100808.34;;;9.66;85.81
32733;BME280;11867;51.198;11.966;2023-02-18T03:00:04;100818.69;;;9.69;85.72
32733;BME280;11867;51.198;11.966;2023-02-18T03:01:26;100815.94;;;9.64;86.18
32733;BME280;11867;51.198;11.966;2023-02-18T03:02:45;100803.69;;;9.61;86.41
32733;BME280;11867;51.198;11.966;2023-02-18T03:04:11;100813.94;;;9.49;86.92
32733;BME280;11867;51.198;11.966;2023-02-18T03:05:25;100804.88;;;9.38;87.66
32733;BME280;11867;51.198;11.966;2023-02-18T03:06:42;100802.69;;;9.35;87.94
32733;BME280;11867;51.198;11.966;2023-02-18T03:08:00;100804.38;;;9.46;88.04
32733;BME280;11867;51.198;11.966;2023-02-18T03:09:09;100804.34;;;9.41;87.87
32733;BME280;11867;51.198;11.966;2023-02-18T03:10:39;100809.56;;;9.43;88.41
32733;BME280;11867;51.198;11.966;2023-02-18T03:11:52;100799.22;;;9.45;88.36
32733;BME280;11867;51.198;11.966;2023-02-18T03:13:04;100797.88;;;9.53;88.56
32733;BME280;11867;51.198;11.966;2023-02-18T03:14:12;100795.44;;;9.51;87.99
32733;BME280;11867;51.198;11.966;2023-02-18T03:15:23;100808.53;;;9.54;88.36
32733;BME280;11867;51.198;11.966;2023-02-18T03:16:33;100790.50;;;9.48;88.39
32733;BME280;11867;51.198;11.966;2023-02-18T03:17:42;100797.19;;;9.73;87.97
32733;BME280;11867;51.198;11.966;2023-02-18T03:18:50;100781.59;;;9.58;88.31
32733;BME280;11867;51.198;11.966;2023-02-18T03:20:02;100782.16;;;9.60;88.22
32733;BME280;11867;51.198;11.966;2023-02-18T03:21:11;100795.16;;;9.47;88.86
32733;BME280;11867;51.198;11.966;2023-02-18T03:22:18;100801.88;;;9.40;89.66
32733;BME280;11867;51.198;11.966;2023-02-18T03:23:24;100777.53;;;9.18;90.17
32733;BME280;11867;51.198;11.966;2023-02-18T03:24:30;100785.22;;;9.31;90.40
32733;BME280;11867;51.198;11.966;2023-02-18T03:25:34;100778.38;;;9.23;90.26
32733;BME280;11867;51.198;11.966;2023-02-18T03:26:44;100788.19;;;9.24;90.81
32733;BME280;11867;51.198;11.966;2023-02-18T03:27:50;100783.16;;;9.43;90.28
32733;BME280;11867;51.198;11.966;2023-02-18T03:28:57;100775.63;;;9.61;89.41
32733;BME280;11867;51.198;11.966;2023-02-18T03:30:04;100785.50;;;9.72;88.84
32733;BME280;11867;51.198;11.966;2023-02-18T03:31:13;100781.66;;;9.68;89.27
32733;BME280;11867;51.198;11.966;2023-02-18T03:32:21;100782.19;;;9.65;89.39
32733;BME280;11867;51.198;11.966;2023-02-18T03:33:29;100766.63;;;9.55;89.73
32733;BME280;11867;51.198;11.966;2023-02-18T03:34:35;100773.13;;;9.54;90.00
32733;BME280;11867;51.198;11.966;2023-02-18T03:35:41;100768.22;;;9.51;90.18
32733;BME280;11867;51.198;11.966;2023-02-18T03:36:46;100778.88;;;9.58;90.35
32733;BME280;11867;51.198;11.966;2023-02-18T03:37:53;100776.13;;;9.53;90.55
32733;BME280;11867;51.198;11.966;2023-02-18T03:39:03;100787.69;;;9.75;90.18
32733;BME280;11867;51.198;11.966;2023-02-18T03:40:08;100775.66;;;9.66;90.08
32733;BME280;11867;51.198;11.966;2023-02-18T03:41:10;100788.22;;;9.72;89.74
32733;BME280;11867;51.198;11.966;2023-02-18T03:42:14;100772.56;;;9.47;90.74
32733;BME280;11867;51.198;11.966;2023-02-18T03:43:16;100785.94;;;9.59;91.23
32733;BME280;11867;51.198;11.966;2023-02-18T03:44:19;100781.03;;;9.56;91.30
32733;BME280;11867;51.198;11.966;2023-02-18T03:45:21;100770.34;;;9.44;91.68
32733;BME280;11867;51.198;11.966;2023-02-18T03:46:23;100768.53;;;9.60;91.14
32733;BME280;11867;51.198;11.966;2023-02-18T03:47:28;100773.50;;;9.68;91.21
32733;BME280;11867;51.198;11.966;2023-02-18T03:48:30;100759.06;;;9.67;90.91
32733;BME280;11867;51.198;11.966;2023-02-18T03:49:32;100767.50;;;9.71;91.30
32733;BME280;11867;51.198;11.966;2023-02-18T03:50:35;100775.47;;;9.83;91.00
32733;BME280;11867;51.198;11.966;2023-02-18T03:51:37;100781.41;;;9.69;91.25
32733;BME280;11867;51.198;11.966;2023-02-18T03:52:41;100776.16;;;9.63;91.81
32733;BME280;11867;51.198;11.966;2023-02-18T03:53:43;100777.22;;;9.57;92.58
32733;BME280;11867;51.198;11.966;2023-02-18T03:54:46;100768.25;;;9.56;92.73
32733;BME280;11867;51.198;11.966;2023-02-18T03:55:47;100764.03;;;9.33;94.29
32733;BME280;11867;51.198;11.966;2023-02-18T03:56:50;100761.00;;;9.29;94.99
32733;BME280;11867;51.198;11.966;2023-02-18T03:57:53;100769.03;;;9.52;94.70
32733;BME280;11867;51.198;11.966;2023-02-18T03:58:56;100778.38;;;9.66;94.53
32733;BME280;11867;51.198;11.966;2023-02-18T03:59:57;100772.63;;;9.62;94.75
32733;BME280;11867;51.198;11.966;2023-02-18T04:01:00;100773.19;;;9.64;95.40
32733;BME280;11867;51.198;11.966;2023-02-18T04:02:04;100762.25;;;9.54;96.31
32733;BME280;11867;51.198;11.966;2023-02-18T04:03:09;100763.06;;;9.55;96.37
32733;BME280;11867;51.198;11.966;2023-02-18T04:04:11;100762.31;;;9.64;96.39
32733;BME280;11867;51.198;11.966;2023-02-18T04:05:14;100750.50;;;9.43;97.16
32733;BME280;11867;51.198;11.966;2023-02-18T04:06:15;100765.28;;;9.63;97.17
32733;BME280;11867;51.198;11.966;2023-02-18T04:07:18;100755.25;;;9.26;98.31
32733;BME280;11867;51.198;11.966;2023-02-18T04:08:21;100751.69;;;9.20;98.91
32733;BME280;11867;51.198;11.966;2023-02-18T04:09:24;100757.47;;;9.34;98.65
32733;BME280;11867;51.198;11.966;2023-02-18T04:10:26;100750.53;;;9.54;98.03
32733;BME280;11867;51.198;11.966;2023-02-18T04:11:28;100752.47;;;9.53;97.99
32733;BME280;11867;51.198;11.966;2023-02-18T04:12:30;100752.50;;;9.63;97.77
32733;BME280;11867;51.198;11.966;2023-02-18T04:13:33;100742.38;;;9.59;97.35
32733;BME280;11867;51.198;11.966;2023-02-18T04:14:35;100760.94;;;9.62;98.13
32733;BME280;11867;51.198;11.966;2023-02-18T04:15:38;100757.16;;;9.68;97.80
32733;BME280;11867;51.198;11.966;2023-02-18T04:16:40;100768.72;;;9.96;96.84
32733;BME280;11867;51.198;11.966;2023-02-18T04:17:44;100764.94;;;10.02;96.16
32733;BME280;11867;51.198;11.966;2023-02-18T04:18:46;100753.47;;;9.95;96.03
32733;BME280;11867;51.198;11.966;2023-02-18T04:19:49;100767.94;;;10.05;95.50
32733;BME280;11867;51.198;11.966;2023-02-18T04:20:52;100755.94;;;10.06;95.48
32733;BME280;11867;51.198;11.966;2023-02-18T04:21:54;100772.50;;;9.84;96.72
32733;BME280;11867;51.198;11.966;2023-02-18T04:22:57;100762.09;;;9.76;96.83
32733;BME280;11867;51.198;11.966;2023-02-18T04:24:00;100755.22;;;9.63;97.59
32733;BME280;11867;51.198;11.966;2023-02-18T04:25:07;100777.28;;;9.62;98.73
32733;BME280;11867;51.198;11.966;2023-02-18T04:26:09;100782.78;;;9.72;98.34
32733;BME280;11867;51.198;11.966;2023-02-18T04:27:15;100781.16;;;9.76;98.69
32733;BME280;11867;51.198;11.966;2023-02-18T04:28:17;100777.69;;;9.96;97.79
32733;BME280;11867;51.198;11.966;2023-02-18T04:29:20;100763.22;;;9.80;98.00
32733;BME280;11867;51.198;11.966;2023-02-18T04:30:25;100783.47;;;10.05;97.50
32733;BME280;11867;51.198;11.966;2023-02-18T04:31:29;100780.72;;;9.95;97.34
32733;BME280;11867;51.198;11.966;2023-02-18T04:32:31;100781.16;;;9.76;98.17
32733;BME280;11867;51.198;11.966;2023-02-18T04:33:34;100758.72;;;9.59;99.02
32733;BME280;11867;51.198;11.966;2023-02-18T04:34:36;100777.41;;;9.87;98.83
32733;BME280;11867;51.198;11.966;2023-02-18T04:35:39;100763.69;;;9.67;99.83
32733;BME280;11867;51.198;11.966;2023-02-18T04:36:43;100761.56;;;9.74;99.99
32733;BME280;11867;51.198;11.966;2023-02-18T04:37:45;100773.78;;;9.72;100.00
32733;BME280;11867;51.198;11.966;2023-02-18T04:38:48;100769.72;;;9.79;100.00
32733;BME280;11867;51.198;11.966;2023-02-18T04:39:52;100761.31;;;9.81;100.00
32733;BME280;11867;51.198;11.966;2023-02-18T04:40:57;100762.53;;;9.58;100.00
32733;BME280;11867;51.198;11.966;2023-02-18T04:41:59;100761.69;;;9.47;100.00
32733;BME280;11867;51.198;11.966;2023-02-18T04:43:09;100758.09;;;9.46;100.00
32733;BME280;11867;51.198;11.966;2023-02-18T04:44:12;100768.16;;;9.41;100.00
32733;BME280;11867;51.198;11.966;2023-02-18T04:45:16;100770.09;;;9.45;100.00
32733;BME280;11867;51.198;11.966;2023-02-18T04:46:18;100748.03;;;9.42;100.00
32733;BME280;11867;51.198;11.966;2023-02-18T04:47:25;100744.66;;;9.29;100.00
32733;BME280;11867;51.198;11.966;2023-02-18T04:48:28;100758.50;;;9.23;100.00
32733;BME280;11867;51.198;11.966;2023-02-18T04:49:36;100766.69;;;9.28;100.00
32733;BME280;11867;51.198;11.966;2023-02-18T04:50:38;100748.75;;;9.27;100.00
32733;BME280;11867;51.198;11.966;2023-02-18T04:51:42;100738.59;;;9.12;100.00
32733;BME280;11867;51.198;11.966;2023-02-18T04:52:45;100758.69;;;9.11;100.00
32733;BME280;11867;51.198;11.966;2023-02-18T04:53:48;100732.13;;;8.86;100.00
32733;BME280;11867;51.198;11.966;2023-02-18T04:55:09;100725.44;;;8.66;100.00
32733;BME280;11867;51.198;11.966;2023-02-18T04:56:38;100740.34;;;8.91;100.00
32733;BME280;11867;51.198;11.966;2023-02-18T04:57:42;100740.34;;;8.96;100.00
32733;BME280;11867;51.198;11.966;2023-02-18T04:58:51;100734.59;;;8.87;100.00
32733;BME280;11867;51.198;11.966;2023-02-18T04:59:53;100704.97;;;8.91;100.00
32733;BME280;11867;51.198;11.966;2023-02-18T05:01:03;100724.03;;;8.96;100.00
32733;BME280;11867;51.198;11.966;2023-02-18T05:02:08;100709.63;;;8.96;100.00
32733;BME280;11867;51.198;11.966;2023-02-18T05:03:13;100704.44;;;8.94;100.00
32733;BME280;11867;51.198;11.966;2023-02-18T05:04:35;100710.13;;;8.93;100.00
32733;BME280;11867;51.198;11.966;2023-02-18T05:06:07;100698.50;;;8.97;100.00
32733;BME280;11867;51.198;11.966;2023-02-18T05:07:25;100710.56;;;9.12;100.00
32733;BME280;11867;51.198;11.966;2023-02-18T05:08:42;100696.41;;;9.09;100.00
32733;BME280;11867;51.198;11.966;2023-02-18T05:09:47;100717.41;;;9.19;100.00
32733;BME280;11867;51.198;11.966;2023-02-18T05:11:32;100701.00;;;9.04;100.00
32733;BME280;11867;51.198;11.966;2023-02-18T05:12:39;100698.09;;;9.16;100.00
32733;BME280;11867;51.198;11.966;2023-02-18T05:13:40;100706.63;;;9.40;100.00
32733;BME280;11867;51.198;11.966;2023-02-18T05:14:46;100703.31;;;9.27;100.00
32733;BME280;11867;51.198;11.966;2023-02-18T05:15:48;100681.22;;;9.24;100.00
32733;BME280;11867;51.198;11.966;2023-02-18T05:16:54;100685.38;;;9.32;100.00
32733;BME280;11867;51.198;11.966;2023-02-18T05:18:01;100675.88;;;9.39;100.00
32733;BME280;11867;51.198;11.966;2023-02-18T05:19:10;100692.41;;;9.22;100.00
32733;BME280;11867;51.198;11.966;2023-02-18T05:20:16;100693.28;;;9.38;100.00
32733;BME280;11867;51.198;11.966;2023-02-18T05:21:18;100691.16;;;9.45;100.00
32733;BME280;11867;51.198;11.966;2023-02-18T05:22:25;100688.97;;;9.42;100.00
32733;BME280;11867;51.198;11.966;2023-02-18T05:23:36;100689.00;;;9.47;100.00
32733;BME280;11867;51.198;11.966;2023-02-18T05:24:42;100685.69;;;9.40;100.00
32733;BME280;11867;51.198;11.966;2023-02-18T05:25:48;100682.66;;;9.32;100.00
32733;BME280;11867;51.198;11.966;2023-02-18T05:26:53;100694.41;;;9.42;100.00
32733;BME280;11867;51.198;11.966;2023-02-18T05:27:59;100671.56;;;9.48;100.00
32733;BME280;11867;51.198;11.966;2023-02-18T05:29:03;100672.13;;;9.50;100.00
32733;BME280;11867;51.198;11.966;2023-02-18T05:30:08;100674.38;;;9.64;100.00
32733;BME280;11867;51.198;11.966;2023-02-18T05:31:13;100680.34;;;9.61;100.00
32733;BME280;11867;51.198;11.966;2023-02-18T05:32:17;100683.91;;;9.66;100.00
32733;BME280;11867;51.198;11.966;2023-02-18T05:33:27;100683.59;;;9.58;100.00
32733;BME280;11867;51.198;11.966;2023-02-18T05:34:36;100661.22;;;9.45;100.00
32733;BME280;11867;51.198;11.966;2023-02-18T05:35:40;100666.69;;;9.50;100.00
32733;BME280;11867;51.198;11.966;2023-02-18T05:36:48;100657.19;;;9.53;100.00
32733;BME280;11867;51.198;11.966;2023-02-18T05:37:55;100662.72;;;9.74;100.00
32733;BME280;11867;51.198;11.966;2023-02-18T05:39:02;100651.31;;;9.87;100.00
32733;BME280;11867;51.198;11.966;2023-02-18T05:40:11;100652.16;;;10.08;100.00
32733;BME280;11867;51.198;11.966;2023-02-18T05:41:16;100647.78;;;9.86;100.00
32733;BME280;11867;51.198;11.966;2023-02-18T05:42:25;100641.75;;;9.74;100.00
32733;BME280;11867;51.198;11.966;2023-02-18T05:43:28;100634.41;;;9.90;100.00
32733;BME280;11867;51.198;11.966;2023-02-18T05:44:33;100648.59;;;10.02;100.00
32733;BME280;11867;51.198;11.966;2023-02-18T05:45:36;100623.25;;;9.86;100.00
32733;BME280;11867;51.198;11.966;2023-02-18T05:46:42;100645.03;;;9.92;100.00
32733;BME280;11867;51.198;11.966;2023-02-18T05:47:47;100631.34;;;9.61;100.00
32733;BME280;11867;51.198;11.966;2023-02-18T05:48:51;100632.13;;;9.51;100.00
32733;BME280;11867;51.198;11.966;2023-02-18T05:49:55;100634.38;;;9.75;100.00
32733;BME280;11867;51.198;11.966;2023-02-18T05:51:00;100637.94;;;9.80;100.00
32733;BME280;11867;51.198;11.966;2023-02-18T05:52:04;100621.84;;;9.68;100.00